New Bloomington, Ohio
Current Conditions -  °F | °C
As of 9:53 AM on Saturday 22 Nov 2014 (Local Time) from KMNN Reporting Station
Haze Haze  
Wind Chill: -4°   Ceiling: 5000
Heat Index:   Visibility: 6mi
Dew Point: -1°   Wind: 15mph
Humidity: 85%   Direction: 190°S
Pressure: 30.2"   Gusts: NA
Location:  40.58°N, 83.32°W
Report Text: KMNN 221453Z AUTO 19013KT 6SM BR BKN050 OVC090 02/M01 A3020 RMK AO2 SLP242 P0002 60003 I1000 I3006 T00171006 58012 TSNO
Loading
Personal Weather Stations






























Interactive Weather Map New forecast layout! Learn more

10-Day Weather Forecast

Advertisements
Track Severe Weather on mobile